Página principal
METAR-TAF:

METAR-TAF

Aeroportos :

Duchambe, Tadjiquistão

latitude: 38-33N, longitude: 068-47E, altura: 803 m

Observação actual do tempo

O boletim foi feito há 13 minutos, às 12:30 UTC
Vento 10 kt de oeste
Temperatura 38°C
Humidade 17%
Pressão 1000 hPa
Visibilidade 10 km ou mais

METAR: UTDD 201230Z 28005MPS 9999 NSC 38/09 Q1000 R09/D TEMPO 27007MPS RMK QFE683/0910

Hora: 17:43 (12:43 UTC)

Previsão

O boletim foi feito há 43 minutos, às 12:00 UTC
Previsão válida de 20 às 13 UTC a 21 às 01 UTC
Vento 4 kt com direcção variável
Visibilidade: 6000 m
Poucas nuvensa uma altura de 6600 ft
Nuvens dispersasa uma altura de 15000 ft
Temporariamente
de 20 às 13 UTC a 20 às 16 UTC
Vento 10 kt de oeste

TAF: UTDD 201200Z 2013/2101 VRB02MPS 6000 FEW066 SCT150 TEMPO 2013/2016 27005MPS

Observações e previsões do tempo de mais de 4000 aeroportos (mensagens METAR e TAF).

As estações disponíveis são os pontos amarelos e vermelhos sobre o mapa.

Mova o rato sobre o mapa para ver o nome da estação.

Depois clique no ponto para visualizar as observações e previsões meteorológicas.

Para alterar o mapa : clique nos botões verdes com uma cruz preta para aumentar o zoom; no botão verde com uma pitada de zoom; ou nas setas verdes para mapas adjacentes.


METAR-TAF: